Time;durP1;ratioP1;P1;durP2;ratioP2;P2;SDS_P1;SDS_P2;PMS_P1;PMS_P2;Temp;Humidity;BMP_temperature;BMP_pressure;BME280_temperature;BME280_humidity;BME280_pressure;Samples;Min_cycle;Max_cycle;Signal;HPM_P1;HPM_P2
2022/06/23 00:00:26;;;;;;;6.75;1.67;;;;;;;20.96;53.90;98268.31;4364555;32;20091;-72
2022/06/23 00:02:54;;;;;;;3.40;1.45;;;;;;;20.91;54.37;98271.63;4351140;32;20113;-72
2022/06/23 00:05:24;;;;;;;2.53;1.40;;;;;;;20.87;54.52;98273.06;4351286;32;20570;-72
2022/06/23 00:07:57;;;;;;;6.50;1.80;;;;;;;20.85;54.66;98275.16;4364473;32;20479;-72
2022/06/23 00:10:52;;;;;;;5.15;1.70;;;;;;;20.86;53.36;98270.63;4351489;32;20138;-72
2022/06/23 00:13:34;;;;;;;3.25;1.73;;;;;;;20.84;53.59;98267.38;4362568;32;20088;-72
2022/06/23 00:16:03;;;;;;;2.10;1.90;;;;;;;20.84;53.93;98262.06;4351040;32;20137;-72
2022/06/23 00:18:36;;;;;;;2.70;1.80;;;;;;;20.87;54.00;98267.75;4364396;32;20111;-72
2022/06/23 00:21:23;;;;;;;7.18;1.80;;;;;;;20.86;54.20;98266.13;4351048;32;20194;-72
2022/06/23 00:23:55;;;;;;;3.17;1.65;;;;;;;20.83;54.29;98263.91;4351073;32;20445;-72
2022/06/23 00:26:31;;;;;;;1.77;1.62;;;;;;;20.86;54.57;98266.13;4364392;32;20083;-72
2022/06/23 00:29:02;;;;;;;2.17;1.65;;;;;;;20.84;54.60;98272.72;4350866;32;20118;-72
2022/06/23 00:31:32;;;;;;;2.65;1.90;;;;;;;20.81;55.10;98283.78;4350967;32;20129;-72
2022/06/23 00:34:02;;;;;;;2.58;1.90;;;;;;;20.74;54.93;98295.28;4350969;32;20091;-72
2022/06/23 00:36:37;;;;;;;3.47;1.85;;;;;;;20.73;54.97;98298.97;4363922;32;20118;-72
2022/06/23 00:39:06;;;;;;;3.50;2.00;;;;;;;20.68;54.80;98303.31;4350753;32;20099;-72
2022/06/23 00:41:36;;;;;;;2.37;1.92;;;;;;;20.66;54.88;98305.38;4364165;32;20103;-72
2022/06/23 00:44:06;;;;;;;2.35;1.92;;;;;;;20.46;56.03;98300.94;4364166;32;20152;-71
2022/06/23 00:46:49;;;;;;;3.58;1.60;;;;;;;20.49;56.35;98302.37;4350749;32;20122;-72
2022/06/23 00:49:41;;;;;;;4.10;1.70;;;;;;;20.33;56.73;98307.16;4350822;32;20099;-71
2022/06/23 00:52:27;;;;;;;3.03;1.55;;;;;;;20.29;57.17;98313.12;4364081;32;20463;-71
2022/06/23 00:54:57;;;;;;;2.65;1.95;;;;;;;20.17;57.34;98320.94;4364415;32;20495;-72
2022/06/23 00:57:33;;;;;;;2.55;1.80;;;;;;;20.12;57.15;98324.22;4361554;32;74375;-71
2022/06/23 01:00:13;;;;;;;2.05;1.85;;;;;;;20.14;57.03;98330.13;4365132;32;20398;-72
2022/06/23 01:02:54;;;;;;;3.05;1.83;;;;;;;20.16;57.58;98324.59;4364966;32;20134;-72
2022/06/23 01:05:31;;;;;;;3.33;1.87;;;;;;;20.05;58.35;98326.06;4364844;32;20122;-71
2022/06/23 01:08:09;;;;;;;2.28;1.65;;;;;;;19.99;58.96;98327.72;4351427;32;20079;-71
2022/06/23 01:10:43;;;;;;;2.00;1.48;;;;;;;19.92;57.05;98334.09;4351586;32;20394;-72
2022/06/23 01:13:30;;;;;;;2.80;1.67;;;;;;;19.95;57.05;98326.50;4364725;32;20153;-72
2022/06/23 01:16:29;;;;;;;5.47;1.70;;;;;;;19.96;56.83;98330.81;4365051;32;20078;-71
2022/06/23 01:19:20;;;;;;;2.35;1.45;;;;;;;19.82;57.21;98323.91;4351225;32;20516;-72
2022/06/23 01:21:53;;;;;;;4.55;1.98;;;;;;;19.64;57.96;98324.50;4351373;32;20099;-72
2022/06/23 01:24:23;;;;;;;6.18;2.00;;;;;;;19.63;58.75;98330.84;4351535;32;20125;-72
2022/06/23 01:27:09;;;;;;;1.80;1.30;;;;;;;19.45;60.72;98323.50;4364778;32;20475;-71
2022/06/23 01:30:06;;;;;;;2.72;1.80;;;;;;;19.33;59.55;98320.62;4364711;32;20079;-72
2022/06/23 01:32:58;;;;;;;2.58;1.58;;;;;;;19.20;61.20;98329.44;4351412;32;20235;-72
2022/06/23 01:35:38;;;;;;;2.55;1.75;;;;;;;19.09;62.31;98330.84;4351404;32;20444;-72
2022/06/23 01:38:36;;;;;;;4.82;1.73;;;;;;;18.98;63.96;98339.41;4351280;32;20417;-72
2022/06/23 01:41:31;;;;;;;2.20;1.80;;;;;;;18.81;66.09;98336.28;4364595;32;20463;-72
2022/06/23 01:44:24;;;;;;;5.68;1.90;;;;;;;18.62;68.57;98344.00;4351398;32;20099;-71
2022/06/23 01:46:53;;;;;;;3.45;1.90;;;;;;;18.48;71.21;98334.34;4350571;32;20736;-72
2022/06/23 01:49:34;;;;;;;4.22;2.12;;;;;;;18.29;69.77;98340.37;4364354;32;20484;-71
2022/06/23 01:52:11;;;;;;;2.97;1.75;;;;;;;18.22;71.41;98327.91;4351284;32;20075;-71
2022/06/23 01:54:40;;;;;;;2.05;1.65;;;;;;;18.24;67.90;98306.50;4351238;32;20456;-71
2022/06/23 01:57:27;;;;;;;3.42;1.70;;;;;;;18.37;70.27;98317.16;4364414;32;20154;-71
2022/06/23 02:00:13;;;;;;;3.75;1.70;;;;;;;18.11;68.33;98336.44;4349666;33;20083;-71
2022/06/23 02:03:09;;;;;;;4.82;1.80;;;;;;;18.00;68.99;98331.69;4349749;33;20071;-71
2022/06/23 02:05:54;;;;;;;3.10;1.50;;;;;;;17.90;68.50;98335.50;4336551;33;20122;-71
2022/06/23 02:08:28;;;;;;;4.12;1.73;;;;;;;17.85;66.80;98340.56;4336422;33;20087;-71
2022/06/23 02:11:14;;;;;;;3.10;1.40;;;;;;;17.85;66.49;98329.13;4349537;33;20092;-71
2022/06/23 02:13:43;;;;;;;4.47;1.45;;;;;;;17.92;65.79;98330.00;4349680;33;20104;-71
2022/06/23 02:16:26;;;;;;;3.33;1.73;;;;;;;17.89;65.11;98325.09;4349555;33;20103;-71
2022/06/23 02:19:24;;;;;;;2.12;1.65;;;;;;;17.93;65.00;98331.66;4336208;33;20126;-71
2022/06/23 02:21:54;;;;;;;2.95;1.50;;;;;;;17.90;64.64;98332.84;4349540;33;20088;-71
2022/06/23 02:24:55;;;;;;;2.10;1.20;;;;;;;17.94;63.42;98327.16;4330573;33;20436;-71
2022/06/23 02:27:29;;;;;;;2.25;1.40;;;;;;;17.93;62.27;98325.53;4336133;33;20119;-71
2022/06/23 02:30:09;;;;;;;3.97;1.37;;;;;;;18.00;63.09;98331.69;4324254;33;20103;-71
2022/06/23 02:32:53;;;;;;;4.03;1.48;;;;;;;18.02;63.09;98324.37;4349480;33;20111;-71
2022/06/23 02:35:41;;;;;;;2.53;1.52;;;;;;;17.98;61.68;98321.28;4349533;33;20079;-71
2022/06/23 02:38:29;;;;;;;2.62;1.52;;;;;;;18.09;62.73;98338.44;4349352;33;20092;-71
2022/06/23 02:40:56;;;;;;;2.50;1.20;;;;;;;18.00;61.85;98334.31;4349474;33;20504;-71
2022/06/23 02:43:43;;;;;;;1.42;1.30;;;;;;;18.02;61.17;98353.53;4349366;33;20096;-71
2022/06/23 02:46:32;;;;;;;3.53;1.50;;;;;;;18.07;60.96;98361.69;4349371;33;20088;-71
2022/06/23 02:49:34;;;;;;;3.37;1.30;;;;;;;18.06;61.19;98363.53;4349415;33;20106;-71
2022/06/23 02:52:15;;;;;;;2.47;1.67;;;;;;;18.08;60.37;98363.34;4349147;33;20091;-71
2022/06/23 02:54:58;;;;;;;1.77;1.30;;;;;;;18.11;60.06;98349.69;4349390;33;20092;-71
2022/06/23 02:57:34;;;;;;;1.52;1.25;;;;;;;18.14;59.51;98361.72;4349099;33;20079;-71
2022/06/23 03:00:44;;;;;;;2.30;1.20;;;;;;;18.03;59.22;98369.22;4348767;32;20488;-71
2022/06/23 03:03:23;;;;;;;2.55;1.52;;;;;;;18.05;59.19;98375.16;4317371;33;20115;-71
2022/06/23 03:05:59;;;;;;;3.67;1.42;;;;;;;18.11;59.10;98376.22;4317719;33;20100;-72
2022/06/23 03:08:46;;;;;;;1.30;1.20;;;;;;;18.22;58.42;98377.50;4312348;33;20541;-71
2022/06/23 03:11:16;;;;;;;2.37;1.48;;;;;;;18.20;57.86;98371.56;4317450;33;20207;-72
2022/06/23 03:13:51;;;;;;;1.50;1.40;;;;;;;18.33;57.87;98370.81;4317608;33;20091;-72
2022/06/23 03:16:26;;;;;;;1.70;1.20;;;;;;;18.37;57.40;98388.78;4317337;33;20180;-71
2022/06/23 03:19:01;;;;;;;3.08;1.58;;;;;;;18.29;56.45;98394.25;4317271;33;20091;-71
2022/06/23 03:21:38;;;;;;;6.68;1.60;;;;;;;18.33;57.08;98384.06;4317301;33;20104;-71
2022/06/23 03:24:05;;;;;;;1.40;1.20;;;;;;;18.33;57.45;98394.66;4317418;33;20450;-71
2022/06/23 03:26:48;;;;;;;4.10;1.40;;;;;;;18.35;56.95;98409.38;4317278;33;20115;-72
2022/06/23 03:29:32;;;;;;;3.10;1.20;;;;;;;18.36;56.97;98394.28;4317258;33;20512;-71
2022/06/23 03:32:10;;;;;;;3.08;1.30;;;;;;;18.41;57.06;98397.16;4317027;33;20138;-72
2022/06/23 03:34:44;;;;;;;1.67;1.35;;;;;;;18.47;56.77;98396.38;4317250;33;20108;-72
2022/06/23 03:37:38;;;;;;;1.50;1.20;;;;;;;18.53;54.89;98394.75;4317248;33;20240;-72
2022/06/23 03:43:31;;;;;;;3.42;1.37;;;;;;;18.87;54.66;98393.91;4363369;32;20010;-72
2022/06/23 03:46:13;;;;;;;1.95;1.40;;;;;;;18.94;54.40;98391.25;4316869;33;20150;-71
2022/06/23 03:48:42;;;;;;;1.60;1.40;;;;;;;18.97;53.73;98404.16;4316993;33;20698;-72
2022/06/23 03:51:20;;;;;;;5.60;1.30;;;;;;;19.02;53.88;98401.69;4316907;33;20108;-72
2022/06/23 03:53:56;;;;;;;1.80;1.30;;;;;;;19.18;52.99;98412.97;4316787;33;20216;-72
2022/06/23 03:56:26;;;;;;;2.75;1.40;;;;;;;19.24;52.75;98417.47;4317108;33;20233;-72
2022/06/23 03:59:01;;;;;;;2.65;1.42;;;;;;;19.28;52.70;98419.50;4304448;33;20195;-72
2022/06/23 04:01:35;;;;;;;2.30;1.75;;;;;;;19.38;53.01;98427.09;4304849;33;20279;-72
2022/06/23 04:04:12;;;;;;;1.37;1.20;;;;;;;19.46;52.78;98434.06;4316701;33;20171;-72
2022/06/23 04:06:45;;;;;;;3.90;1.35;;;;;;;19.43;52.16;98431.81;4316920;33;20492;-72
2022/06/23 04:09:23;;;;;;;2.58;1.30;;;;;;;19.50;52.13;98433.44;4316653;33;20548;-72
2022/06/23 04:12:08;;;;;;;1.95;1.40;;;;;;;19.61;52.23;98440.00;4318414;33;20076;-72
2022/06/23 04:14:41;;;;;;;1.98;1.37;;;;;;;19.69;51.90;98431.81;4318796;33;20115;-72
2022/06/23 04:17:34;;;;;;;2.62;1.35;;;;;;;19.89;52.10;98436.31;4318753;33;20571;-72
2022/06/23 04:20:10;;;;;;;1.52;1.23;;;;;;;19.97;51.57;98437.97;4318650;33;20104;-72
2022/06/23 04:22:40;;;;;;;1.87;1.30;;;;;;;20.16;49.94;98446.94;4322300;32;20087;-72
2022/06/23 04:25:13;;;;;;;1.80;1.42;;;;;;;20.31;50.36;98434.22;4364952;32;20088;-72
2022/06/23 04:27:46;;;;;;;1.52;1.30;;;;;;;20.59;49.56;98443.78;4351563;32;20083;-72
2022/06/23 04:30:38;;;;;;;2.45;1.30;;;;;;;20.65;48.85;98453.63;4365128;32;20101;-72
2022/06/23 04:33:12;;;;;;;3.58;1.33;;;;;;;20.62;49.34;98450.50;4365021;32;20098;-72
2022/06/23 04:35:40;;;;;;;1.87;1.08;;;;;;;20.49;48.97;98454.84;4351733;32;20198;-72
2022/06/23 04:38:10;;;;;;;2.83;1.02;;;;;;;20.61;50.80;98452.38;4365094;32;20099;-72
2022/06/23 04:40:43;;;;;;;3.22;1.83;;;;;;;20.38;50.69;98455.50;4364935;32;20086;-72
2022/06/23 04:43:17;;;;;;;4.00;1.30;;;;;;;20.30;50.46;98456.56;4364668;32;20117;-72
2022/06/23 04:45:47;;;;;;;1.75;1.40;;;;;;;20.24;51.46;98467.19;4351602;32;20777;-72
2022/06/23 04:48:34;;;;;;;2.10;1.30;;;;;;;20.26;51.41;98468.63;4364996;32;20199;-72
2022/06/23 04:51:11;;;;;;;1.75;1.48;;;;;;;20.38;50.73;98482.13;4364991;32;20091;-72
2022/06/23 04:53:42;;;;;;;2.22;1.55;;;;;;;20.48;50.44;98484.34;4352049;32;20129;-72
2022/06/23 04:56:20;;;;;;;5.93;1.65;;;;;;;20.62;49.74;98475.31;4364803;32;20109;-71
2022/06/23 04:58:56;;;;;;;3.60;1.70;;;;;;;20.81;49.22;98480.78;4364369;32;20103;-72
2022/06/23 05:01:27;;;;;;;1.40;1.27;;;;;;;20.83;48.25;98481.41;4364738;32;20083;-72
2022/06/23 05:03:57;;;;;;;2.12;1.50;;;;;;;21.27;48.80;98479.75;4364886;32;20925;-72
2022/06/23 05:06:36;;;;;;;3.65;1.35;;;;;;;21.26;46.99;98486.94;4365161;32;20146;-72
2022/06/23 05:09:10;;;;;;;2.58;1.30;;;;;;;21.30;47.82;98489.19;4364592;32;20095;-72
2022/06/23 05:11:45;;;;;;;3.15;1.50;;;;;;;21.42;47.06;98498.13;4364511;32;20087;-72
2022/06/23 05:14:20;;;;;;;4.97;1.50;;;;;;;21.27;47.52;98498.41;4364671;32;20075;-72
2022/06/23 05:16:51;;;;;;;1.85;1.52;;;;;;;21.47;47.64;98506.31;4351410;32;20091;-72
2022/06/23 05:22:49;;;;;;;3.58;1.55;;;;;;;21.53;46.75;98509.97;4363540;32;20160;-72
2022/06/23 05:25:46;;;;;;;3.80;1.60;;;;;;;21.47;47.42;98516.13;4350997;32;20087;-72
2022/06/23 05:28:21;;;;;;;2.00;1.48;;;;;;;21.54;47.00;98516.94;4364231;32;20099;-72
2022/06/23 05:30:51;;;;;;;2.22;1.60;;;;;;;21.89;46.64;98517.34;4351167;32;20169;-72
2022/06/23 05:33:22;;;;;;;3.72;1.23;;;;;;;21.93;45.30;98520.38;4364678;32;20094;-72
2022/06/23 05:35:54;;;;;;;2.65;1.33;;;;;;;21.89;45.39;98521.84;4364974;32;20083;-72
2022/06/23 05:38:45;;;;;;;2.70;1.42;;;;;;;22.11;44.51;98523.09;4345429;32;20099;-72
2022/06/23 05:41:13;;;;;;;4.30;1.60;;;;;;;22.12;44.52;98524.75;4364289;32;20147;-72
2022/06/23 05:43:41;;;;;;;1.92;1.50;;;;;;;22.05;45.25;98529.31;4364214;32;20087;-72
2022/06/23 05:46:17;;;;;;;3.25;1.80;;;;;;;21.93;43.78;98533.72;4364454;32;20117;-72
2022/06/23 05:48:59;;;;;;;4.25;1.45;;;;;;;21.85;43.36;98542.78;4351325;32;20404;-72
2022/06/23 05:51:51;;;;;;;5.07;1.37;;;;;;;21.89;42.45;98537.84;4351133;32;20094;-72
2022/06/23 05:54:41;;;;;;;7.75;1.98;;;;;;;21.90;41.76;98553.63;4364254;32;20567;-72
2022/06/23 05:57:17;;;;;;;8.93;1.75;;;;;;;22.19;42.51;98546.03;4350886;32;20115;-72
2022/06/23 05:59:45;;;;;;;3.20;1.40;;;;;;;22.19;41.57;98545.22;4350709;32;20134;-72
2022/06/23 06:02:17;;;;;;;6.32;1.70;;;;;;;22.20;40.50;98550.31;4364345;32;20103;-72
2022/06/23 06:04:56;;;;;;;7.65;1.75;;;;;;;22.31;41.34;98554.97;4350760;32;20095;-72
2022/06/23 06:07:32;;;;;;;1.40;1.10;;;;;;;22.25;40.42;98550.47;4364176;32;20616;-73
2022/06/23 06:10:03;;;;;;;6.68;1.90;;;;;;;22.56;39.89;98550.66;4363737;32;20095;-74
2022/06/23 06:12:36;;;;;;;6.12;1.33;;;;;;;22.83;41.19;98557.38;4349981;32;20129;-73
2022/06/23 06:15:11;;;;;;;21.42;2.20;;;;;;;23.26;39.75;98560.22;4363939;32;20584;-74
2022/06/23 06:17:39;;;;;;;3.37;1.42;;;;;;;23.46;38.24;98566.09;4350716;32;20101;-73
2022/06/23 06:20:08;;;;;;;2.55;1.25;;;;;;;23.37;37.11;98564.78;4350842;32;20558;-74
2022/06/23 06:22:44;;;;;;;2.62;1.33;;;;;;;23.27;38.07;98559.16;4350038;32;20134;-73
2022/06/23 06:25:21;;;;;;;3.20;1.35;;;;;;;23.64;38.14;98575.13;4364078;32;20074;-74
2022/06/23 06:31:24;;;;;;;2.70;1.60;;;;;;;23.69;37.28;98569.91;4362917;32;20166;-74
2022/06/23 06:34:23;;;;;;;3.80;1.30;;;;;;;23.86;36.81;98568.25;4336775;32;20355;-74
2022/06/23 06:36:51;;;;;;;2.05;1.45;;;;;;;24.09;37.46;98564.00;4349400;32;20083;-72
2022/06/23 06:39:28;;;;;;;19.17;3.05;;;;;;;24.14;36.34;98572.16;4350771;32;20082;-72
2022/06/23 06:45:33;;;;;;;3.25;1.20;;;;;;;23.69;35.97;98580.59;4362777;32;20174;-73
2022/06/23 06:48:02;;;;;;;4.20;1.50;;;;;;;23.83;35.85;98587.41;4362745;32;20496;-73
2022/06/23 06:50:45;;;;;;;3.10;1.30;;;;;;;24.05;35.76;98581.56;4362692;32;20083;-74
2022/06/23 06:53:22;;;;;;;2.85;1.42;;;;;;;24.38;35.41;98578.34;4349391;32;20103;-73
2022/06/23 06:55:52;;;;;;;2.05;1.30;;;;;;;24.09;35.30;98585.41;4349339;32;20095;-73
2022/06/23 06:58:35;;;;;;;8.70;1.83;;;;;;;24.01;35.79;98583.91;4356416;32;20191;-73
2022/06/23 07:01:08;;;;;;;5.47;1.65;;;;;;;24.08;36.45;98594.50;4362847;32;20459;-73
2022/06/23 07:03:37;;;;;;;8.13;1.27;;;;;;;24.58;36.63;98596.78;4362573;32;20087;-72
2022/06/23 07:06:18;;;;;;;1.67;1.30;;;;;;;24.58;35.03;98594.09;4349256;32;20172;-73
2022/06/23 07:08:52;;;;;;;9.30;1.62;;;;;;;24.58;35.24;98591.44;4349138;32;20091;-73
2022/06/23 07:14:57;;;;;;;5.78;1.15;;;;;;;25.43;34.61;98591.09;4362461;32;20141;-74
2022/06/23 07:17:37;;;;;;;4.45;1.37;;;;;;;25.52;35.32;98591.53;4362223;32;20442;-73
2022/06/23 07:20:13;;;;;;;3.15;1.20;;;;;;;25.69;33.11;98592.38;4362213;32;20071;-73
2022/06/23 07:22:51;;;;;;;6.32;1.42;;;;;;;25.73;33.05;98592.75;4362285;32;20130;-73
2022/06/23 07:25:25;;;;;;;2.60;1.52;;;;;;;25.05;34.22;98597.81;4348887;32;20095;-74
2022/06/23 07:27:58;;;;;;;3.92;1.35;;;;;;;24.48;34.46;98607.22;4349148;32;20137;-73
2022/06/23 07:34:03;;;;;;;1.50;1.33;;;;;;;24.87;35.84;98607.59;4362135;32;20117;-74
2022/06/23 07:36:30;;;;;;;1.83;1.37;;;;;;;24.95;35.79;98614.47;4362098;32;20154;-74
2022/06/23 07:39:03;;;;;;;3.70;1.58;;;;;;;24.81;34.57;98619.25;4361746;32;20063;-73
2022/06/23 07:41:40;;;;;;;1.27;1.17;;;;;;;24.99;35.42;98621.00;4348438;32;20079;-74
2022/06/23 07:47:38;;;;;;;4.05;1.27;;;;;;;24.96;33.67;98618.78;4359798;32;20149;-73
2022/06/23 07:50:06;;;;;;;4.40;1.40;;;;;;;25.09;34.38;98620.41;4350502;32;20111;-74
2022/06/23 07:52:34;;;;;;;2.60;1.20;;;;;;;24.93;34.23;98621.94;4363628;32;20116;-74
2022/06/23 07:55:02;;;;;;;2.92;1.45;;;;;;;25.08;33.32;98622.28;4350708;32;20442;-74
2022/06/23 08:00:39;;;;;;;3.75;1.65;;;;;;;25.38;33.10;98629.34;4362525;32;20162;-74
2022/06/23 08:03:19;;;;;;;2.55;1.00;;;;;;;25.45;31.41;98618.47;4350571;32;20164;-74
2022/06/23 08:05:54;;;;;;;2.47;1.17;;;;;;;25.41;32.56;98618.16;4350602;32;20463;-74
2022/06/23 08:08:25;;;;;;;1.80;1.33;;;;;;;25.14;32.03;98628.56;4363853;32;20099;-74
2022/06/23 08:17:15;;;;;;;4.03;1.30;;;;;;;25.64;34.53;98622.63;4363643;32;20142;-74
2022/06/23 08:19:45;;;;;;;2.25;1.37;;;;;;;25.62;34.78;98618.56;4363600;32;20084;-74
2022/06/23 08:25:44;;;;;;;2.95;1.17;;;;;;;25.38;32.85;98624.00;4363417;32;20158;-74
2022/06/23 08:28:11;;;;;;;2.33;1.27;;;;;;;25.11;32.73;98623.66;4363960;32;20142;-74
2022/06/23 08:30:40;;;;;;;3.90;1.37;;;;;;;25.28;32.89;98623.75;4364657;32;20171;-74
2022/06/23 08:36:44;;;;;;;3.90;1.30;;;;;;;25.76;31.87;98619.09;4364545;32;20161;-74
2022/06/23 08:39:25;;;;;;;2.40;1.10;;;;;;;25.44;31.58;98617.69;4364749;32;20078;-74
2022/06/23 08:45:43;;;;;;;3.03;1.40;;;;;;;25.50;31.49;98621.28;4363340;32;20114;-73
2022/06/23 08:48:30;;;;;;;3.42;1.70;;;;;;;25.79;31.32;98627.47;4363468;32;20125;-73
2022/06/23 08:51:05;;;;;;;8.68;1.55;;;;;;;25.87;31.58;98623.56;4363295;32;20447;-73
2022/06/23 08:53:45;;;;;;;2.20;1.27;;;;;;;26.28;32.19;98623.50;4349989;32;20099;-73
2022/06/23 08:56:18;;;;;;;3.53;1.30;;;;;;;26.33;32.84;98624.41;4363367;32;20509;-73
2022/06/23 09:02:26;;;;;;;8.13;1.60;;;;;;;25.98;31.11;98628.13;4362445;32;20150;-73
2022/06/23 09:08:53;;;;;;;7.53;1.27;;;;;;;26.32;30.28;98622.78;4363668;32;20145;-73
2022/06/23 09:12:00;;;;;;;3.75;1.27;;;;;;;26.20;31.28;98622.84;4363405;32;20079;-73
2022/06/23 09:14:55;;;;;;;5.50;1.50;;;;;;;26.17;30.76;98625.22;4347440;32;20075;-73
2022/06/23 09:17:31;;;;;;;2.28;1.23;;;;;;;26.43;31.11;98628.31;4363361;32;20129;-73
2022/06/23 09:20:36;;;;;;;3.42;1.50;;;;;;;26.41;31.83;98631.25;4363246;32;20091;-73
2022/06/23 09:23:33;;;;;;;3.72;1.30;;;;;;;26.44;30.75;98624.59;4363091;32;20086;-72
2022/06/23 09:26:18;;;;;;;3.97;1.62;;;;;;;26.76;32.15;98632.09;4316619;33;20174;-73
2022/06/23 09:28:57;;;;;;;4.18;1.40;;;;;;;27.26;31.75;98620.41;4316883;33;20154;-73
2022/06/23 09:31:38;;;;;;;3.15;1.15;;;;;;;27.34;29.93;98621.84;4317050;33;20612;-73
2022/06/23 09:34:42;;;;;;;3.78;1.20;;;;;;;27.40;31.70;98624.38;4316907;33;20204;-73
2022/06/23 09:37:27;;;;;;;6.30;1.70;;;;;;;27.77;30.50;98626.41;4316736;33;20110;-73
2022/06/23 09:40:20;;;;;;;2.58;1.40;;;;;;;27.56;28.81;98628.03;4316617;33;20604;-73
2022/06/23 09:43:00;;;;;;;14.02;1.83;;;;;;;27.77;30.50;98623.69;4316783;33;20138;-73
2022/06/23 09:45:54;;;;;;;4.22;1.30;;;;;;;27.30;29.04;98621.53;4317138;33;20092;-73
2022/06/23 09:48:55;;;;;;;4.90;1.65;;;;;;;27.28;30.81;98626.31;4317125;33;20151;-73
2022/06/23 09:54:58;;;;;;;4.80;1.48;;;;;;;28.02;31.60;98616.97;4316922;33;20126;-73
2022/06/23 09:57:26;;;;;;;3.80;1.10;;;;;;;27.47;29.39;98615.31;4316837;33;20153;-73
2022/06/23 10:00:00;;;;;;;4.60;1.58;;;;;;;27.79;27.99;98613.47;4316879;33;20096;-74
2022/06/23 10:02:34;;;;;;;2.62;1.40;;;;;;;27.47;28.44;98610.72;4331615;32;20500;-73
2022/06/23 10:05:29;;;;;;;2.97;1.20;;;;;;;27.18;29.27;98621.66;4349989;32;20094;-72
2022/06/23 10:11:48;;;;;;;3.67;1.20;;;;;;;27.08;30.00;98619.63;4363243;32;20101;-73
2022/06/23 10:14:20;;;;;;;3.28;1.30;;;;;;;27.59;28.55;98622.16;4363458;32;20092;-74
2022/06/23 10:17:04;;;;;;;4.03;1.17;;;;;;;27.71;26.94;98615.84;4349797;32;20355;-73
2022/06/23 10:19:53;;;;;;;6.37;1.48;;;;;;;27.94;27.49;98610.12;4349730;32;20448;-73
2022/06/23 10:22:47;;;;;;;3.22;1.15;;;;;;;27.82;27.22;98614.06;4362878;32;20071;-73
2022/06/23 10:28:46;;;;;;;5.95;1.25;;;;;;;28.53;27.07;98611.19;4302028;33;20010;-73
2022/06/23 10:35:03;;;;;;;2.78;1.30;;;;;;;28.58;25.73;98613.09;4301987;33;20213;-74
2022/06/23 10:37:47;;;;;;;4.30;1.67;;;;;;;28.87;27.92;98610.09;4287753;33;20155;-72
2022/06/23 10:40:17;;;;;;;1.62;1.20;;;;;;;28.21;25.85;98612.03;4301546;33;20092;-72
2022/06/23 10:43:28;;;;;;;1.90;1.17;;;;;;;28.30;26.26;98613.19;4291953;33;20619;-72
2022/06/23 10:46:10;;;;;;;3.58;1.42;;;;;;;28.79;26.28;98608.69;4301947;33;20084;-71
2022/06/23 10:49:05;;;;;;;4.90;1.42;;;;;;;29.48;25.83;98602.28;4301719;33;20184;-72
2022/06/23 10:55:22;;;;;;;1.95;1.60;;;;;;;30.49;26.91;98601.91;4301690;33;20034;-72
2022/06/23 11:01:38;;;;;;;3.83;1.50;;;;;;;31.51;26.41;98600.00;4303936;33;20132;-72
2022/06/23 11:04:28;;;;;;;1.45;1.25;;;;;;;31.82;23.21;98602.53;4348000;32;20157;-73
2022/06/23 11:07:09;;;;;;;2.78;1.23;;;;;;;31.78;23.00;98582.50;4362619;32;20083;-72
2022/06/23 11:10:04;;;;;;;3.30;1.42;;;;;;;31.70;23.73;98591.25;4349387;32;20070;-73
2022/06/23 11:12:41;;;;;;;3.95;1.20;;;;;;;31.61;24.64;98597.25;4362568;32;20099;-72
2022/06/23 11:15:12;;;;;;;3.62;1.20;;;;;;;32.01;24.94;98599.97;4349635;32;20475;-72
2022/06/23 11:17:42;;;;;;;7.53;1.40;;;;;;;31.99;22.54;98586.72;4362702;32;20087;-73
2022/06/23 11:20:23;;;;;;;5.35;1.60;;;;;;;31.52;23.39;98574.50;4363019;32;20102;-72
2022/06/23 11:23:03;;;;;;;2.55;1.40;;;;;;;31.75;23.96;98589.31;4351260;32;20234;-73
2022/06/23 11:25:54;;;;;;;5.50;1.40;;;;;;;31.37;22.33;98578.16;4364356;32;20146;-72
2022/06/23 11:29:14;;;;;;;5.12;1.48;;;;;;;31.35;22.90;98579.50;4350841;32;20519;-73
2022/06/23 11:32:15;;;;;;;3.00;1.30;;;;;;;31.26;22.33;98579.25;4317711;33;20105;-72
2022/06/23 11:34:52;;;;;;;2.67;1.05;;;;;;;31.95;22.89;98588.34;4317733;33;20553;-72
2022/06/23 11:40:56;;;;;;;4.75;1.10;;;;;;;31.12;22.68;98560.91;4317497;33;20155;-72
2022/06/23 11:46:54;;;;;;;3.17;1.12;;;;;;;30.04;23.75;98569.22;4317431;33;20466;-72
2022/06/23 11:49:28;;;;;;;1.33;0.98;;;;;;;30.02;23.78;98576.75;4317799;33;20548;-73
2022/06/23 11:52:01;;;;;;;;;;;;;;;30.67;23.28;98584.28;4317853;33;20106;-73
2022/06/23 11:54:55;;;;;;;3.92;1.20;;;;;;;30.52;23.07;98578.91;4305562;33;19994;-73
2022/06/23 11:57:37;;;;;;;1.92;1.20;;;;;;;30.49;23.19;98582.97;4302819;33;20108;-73
2022/06/23 12:03:35;;;;;;;4.68;1.10;;;;;;;30.47;23.63;98582.44;4302124;33;20107;-72
2022/06/23 12:09:46;;;;;;;1.50;1.02;;;;;;;30.46;22.60;98588.94;4327550;33;20496;-72
2022/06/23 12:12:13;;;;;;;1.17;0.95;;;;;;;30.68;23.24;98582.41;4332427;33;20163;-72
2022/06/23 12:14:40;;;;;;;2.97;1.30;;;;;;;30.73;22.71;98585.09;4331895;33;20134;-71
2022/06/23 12:20:58;;;;;;;3.03;1.20;;;;;;;32.01;24.10;98587.22;4331691;32;20168;-73
2022/06/23 12:23:46;;;;;;;1.27;0.90;;;;;;;31.24;22.03;98584.97;4307942;33;20664;-73
2022/06/23 12:29:55;;;;;;;3.62;1.15;;;;;;;30.33;23.69;98576.75;4331956;33;20118;-74
2022/06/23 12:32:34;;;;;;;2.45;1.10;;;;;;;30.06;24.88;98585.13;4319800;33;20449;-72
2022/06/23 12:35:24;;;;;;;2.25;1.37;;;;;;;30.20;22.98;98578.09;4331820;33;20452;-71
2022/06/23 12:38:10;;;;;;;0.93;0.80;;;;;;;31.17;22.67;98576.31;4349193;33;20087;-71
2022/06/23 12:40:41;;;;;;;1.50;0.88;;;;;;;30.70;21.92;98566.72;4349047;33;20131;-72
2022/06/23 12:43:08;;;;;;;1.10;1.00;;;;;;;30.66;20.55;98581.88;4335817;33;20103;-73
2022/06/23 12:45:51;;;;;;;2.08;1.10;;;;;;;30.77;21.62;98576.16;4349069;33;20098;-72
2022/06/23 12:48:40;;;;;;;5.07;1.00;;;;;;;30.73;21.72;98568.87;4349047;33;20114;-73
2022/06/23 12:51:30;;;;;;;1.45;0.82;;;;;;;31.30;21.46;98570.31;4348973;33;20063;-73
2022/06/23 12:54:04;;;;;;;3.05;1.08;;;;;;;30.50;22.26;98576.50;4349140;33;20088;-73
2022/06/23 12:56:47;;;;;;;5.10;1.10;;;;;;;31.53;22.61;98569.94;4335824;33;20122;-75
2022/06/23 12:59:23;;;;;;;5.10;1.15;;;;;;;32.72;21.59;98574.16;4349024;33;20143;-76
2022/06/23 13:05:12;;;;;;;1.77;1.10;;;;;;;32.14;21.11;98568.72;4362588;32;20506;-73
2022/06/23 13:07:56;;;;;;;4.72;1.05;;;;;;;31.40;20.83;98563.22;4363838;32;20157;-73
2022/06/23 13:10:31;;;;;;;8.27;1.40;;;;;;;31.40;21.40;98569.47;4363654;32;20188;-74
2022/06/23 13:13:17;;;;;;;1.67;1.15;;;;;;;30.83;21.88;98565.34;4350311;32;20518;-73
2022/06/23 13:16:06;;;;;;;1.85;0.77;;;;;;;29.97;22.99;98562.44;4364700;32;20090;-74
2022/06/23 13:22:09;;;;;;;1.65;1.00;;;;;;;29.94;23.14;98571.09;4364572;32;20105;-74
2022/06/23 13:24:41;;;;;;;8.27;1.25;;;;;;;29.64;23.09;98573.44;4351303;32;20170;-73
2022/06/23 13:27:19;;;;;;;1.87;1.10;;;;;;;29.25;23.91;98563.09;4364864;32;20098;-74
2022/06/23 13:30:08;;;;;;;4.87;0.90;;;;;;;29.64;23.56;98570.75;4351353;32;20123;-74
2022/06/23 13:32:43;;;;;;;1.10;0.85;;;;;;;29.79;23.21;98563.75;4351262;32;20101;-75
2022/06/23 13:35:17;;;;;;;5.30;1.12;;;;;;;30.30;22.64;98563.78;4351097;32;20083;-75
2022/06/23 13:38:19;;;;;;;1.77;1.20;;;;;;;30.58;22.95;98565.12;4364519;32;20113;-75
2022/06/23 13:44:32;;;;;;;3.45;1.05;;;;;;;30.30;23.43;98554.88;4363540;32;20210;-73
2022/06/23 13:47:01;;;;;;;4.00;1.23;;;;;;;30.44;24.04;98561.37;4364231;32;20131;-72
2022/06/23 13:49:42;;;;;;;2.45;1.10;;;;;;;30.96;22.90;98557.44;4350993;32;20095;-72
2022/06/23 13:52:28;;;;;;;1.27;1.10;;;;;;;31.02;23.47;98550.12;4351071;32;20177;-72
2022/06/23 13:55:08;;;;;;;1.37;0.90;;;;;;;30.57;23.01;98552.69;4351230;32;20101;-73
2022/06/23 13:57:58;;;;;;;3.17;1.20;;;;;;;30.79;22.71;98556.97;4351229;32;20539;-72
2022/06/23 14:03:59;;;;;;;2.45;1.10;;;;;;;30.48;23.50;98554.34;4364395;32;20170;-73
2022/06/23 14:06:29;;;;;;;3.00;1.00;;;;;;;30.93;22.08;98552.59;4364155;32;20095;-73
2022/06/23 14:09:16;;;;;;;2.05;1.17;;;;;;;31.67;22.20;98560.94;4364369;32;20092;-73
2022/06/23 14:12:12;;;;;;;1.33;0.98;;;;;;;31.97;21.30;98553.66;4364376;32;20087;-73
2022/06/23 14:14:43;;;;;;;5.37;1.25;;;;;;;32.20;20.96;98551.31;4364342;32;20091;-73
2022/06/23 14:17:13;;;;;;;2.85;1.10;;;;;;;32.61;21.15;98550.91;4351132;32;20083;-73